Station: Rabbit Flat  

  Atmospheric Gas Attenuation - ITU Rec 676-11   ----------------- dB/100km -----------------
Date Time Temp RH % AH g/m3 Dew Point Wind Direction Speed kph Gust kph Barometer mB Rainfall Since 9am 24GHz 47GHz 76GHz 122GHz 134GHz 241GHz
31/08 12:50 30.1 19 5.79 4 22 30 1021.3 0 13.1 18.4 24.2 63.0 52.2 178.1
31/08 12:40 29.7 20 5.97 4.4 22 37 1021.5 0 13.4 18.7 24.9 64.7 54.2 185.1
31/08 12:30 29.2 20 5.81 4 24 35 1021.7 0 13.1 18.6 24.6 63.8 53.0 180.7
31/08 12:20 29.6 20 5.94 4.3 24 33 1021.9 0 13.4 18.7 24.8 64.6 54.0 184.4
31/08 12:10 29 20 5.75 3.8 28 39 1022.1 0 13.0 18.6 24.4 63.5 52.5 179.1
31/08 12:00 29.4 20 5.87 4.1 26 41 1022.4 0 13.2 18.7 24.7 64.2 53.5 182.5
31/08 11:50 28.9 21 6 4.4 28 39 1022.5 0 13.5 18.9 25.2 65.6 55.1 188.1
31/08 11:40 29.2 21 6.1 4.6 28 39 1022.7 0 13.7 19.0 25.4 66.2 55.9 190.9
31/08 11:30 28.4 21 5.84 4 30 43 1022.8 0 13.2 18.8 24.9 64.7 53.8 183.6
31/08 11:20 28.6 22 6.18 4.8 28 43 1022.9 0 13.9 19.2 25.9 67.3 57.1 195.1
31/08 11:10 28.4 21 5.84 4 28 41 1023.1 0 13.2 18.8 24.9 64.8 53.8 183.7
31/08 11:00 28.4 22 6.12 4.6 28 46 1023.2 0 13.8 19.2 25.8 67.0 56.6 193.5
31/08 10:50 27.7 22 5.89 4.1 32 44 1023.2 0 13.3 19.0 25.3 65.7 54.8 187.0
31/08 10:40 28.1 22 6.02 4.4 32 43 1023.2 0 13.6 19.1 25.5 66.4 55.8 190.7
31/08 10:30 28.2 22 6.05 4.5 26 41 1023.3 0 13.7 19.1 25.6 66.6 56.1 191.5
31/08 10:20 27.1 23 5.95 4.2 28 41 1023.3 0 13.5 19.2 25.6 66.7 55.8 190.5
31/08 10:10 27.2 23 5.99 4.3 28 43 1023.3 0 13.6 19.3 25.7 66.9 56.1 191.7
31/08 10:00 26.6 23 5.79 3.8 26 43 1023.4 0 13.2 19.1 25.3 65.8 54.5 185.9
31/08 09:50 26.5 24 6.01 4.3 30 46 1023.4 0 13.6 19.4 26.0 67.7 56.8 194.0
31/08 09:40 25.9 25 6.05 4.4 28 43 1023.5 0 13.7 19.6 26.3 68.5 57.6 196.8
31/08 09:30 25.6 26 6.19 4.7 22 41 1023.5 0 14.0 19.9 26.9 69.9 59.3 202.7
31/08 09:20 24.7 27 6.11 4.5 24 35 1023.5 0 13.9 19.9 26.9 70.0 59.1 201.9
31/08 09:10 24.7 29 6.56 5.5 20 35 1023.6 0 14.8 20.5 28.3 73.8 63.9 218.6
31/08 09:00 23.8 30 6.45 5.2 17 24 1023.6 0 14.6 20.6 28.3 73.7 63.4 216.9
31/08 08:50 23.4 31 6.52 5.3 17 30 1023.6 0 14.8 20.8 28.6 74.6 64.5 220.6
31/08 08:40 22.6 33 6.63 5.5 11 22 1023.5 0 15.1 21.1 29.3 76.3 66.3 226.9
31/08 08:30 20.8 40 7.24 6.7 7 11 1023.3 0 16.4 22.3 32.0 83.6 74.7 256.3
31/08 08:20 19.1 43 7.05 6.2 2 7 1023.3 0 16.1 22.5 32.0 83.6 74.1 253.8
31/08 08:10 17.4 51 7.56 7.2 0 0 1023.2 0 17.2 23.6 34.5 90.3 81.8 280.8
31/08 08:00 15.4 55 7.23 6.4 6 7 1023.1 0 16.6 23.7 34.2 89.3 79.8 273.5
31/08 07:50 13.5 60 7.02 5.9 7 9 1023 0 16.2 23.8 34.2 89.3 79.1 270.7
31/08 07:40 12 66 7.03 5.9 9 9 1022.8 0 16.3 24.2 34.8 91.0 80.7 276.3
31/08 07:30 10.7 69 6.78 5.3 9 11 1022.7 0 15.8 24.2 34.4 89.9 78.8 269.4
31/08 07:20 9.7 72 6.64 4.9 7 11 1022.6 0 15.6 24.2 34.3 89.6 78.0 266.4
31/08 07:10 9 74 6.53 4.6 6 7 1022.6 0 15.4 24.3 34.2 89.2 77.3 263.7
31/08 07:00 8.5 75 6.41 4.3 7 7 1022.4 0 15.1 24.2 33.9 88.5 76.2 259.8
31/08 06:50 8.8 73 6.36 4.2 7 7 1022.3 0 15.0 24.0 33.6 87.6 75.2 256.5
31/08 06:40 9.1 71 6.3 4.1 7 7 1022.1 0 14.9 23.8 33.2 86.6 74.1 252.7
31/08 06:30 9 72 6.35 4.2 7 9 1022.2 0 15.0 24.0 33.4 87.2 74.9 255.4
31/08 06:20 9 71 6.26 4 7 7 1022 0 14.8 23.8 33.1 86.3 73.7 251.2
31/08 06:10 9.3 73 6.56 4.7 6 6 1021.8 0 15.4 24.2 34.1 89.1 77.3 263.9
31/08 06:00 9.4 72 6.51 4.6 6 7 1021.8 0 15.3 24.1 33.9 88.4 76.6 261.3
31/08 05:50 9.1 74 6.57 4.7 6 7 1021.7 0 15.4 24.3 34.2 89.4 77.6 265.0
31/08 05:40 9.3 72 6.47 4.5 7 9 1021.6 0 15.2 24.0 33.7 88.1 76.1 259.7
31/08 05:30 9.7 68 6.27 4.1 7 9 1021.5 0 14.8 23.6 32.8 85.6 73.1 249.4
31/08 05:20 9.6 69 6.32 4.2 6 7 1021.4 0 14.9 23.7 33.0 86.2 73.9 251.9
31/08 05:10 9.4 70 6.33 4.2 6 6 1021.3 0 14.9 23.8 33.1 86.5 74.2 253.0
31/08 05:00 9.7 69 6.36 4.3 7 7 1021.2 0 15.0 23.7 33.1 86.5 74.3 253.3
31/08 04:50 9.8 68 6.31 4.2 7 7 1021.2 0 14.9 23.6 32.9 85.9 73.5 250.8
31/08 04:40 9.6 70 6.41 4.4 7 7 1021.1 0 15.1 23.8 33.4 87.1 75.0 255.9
31/08 04:30 9.9 67 6.26 4.1 7 7 1021 0 14.8 23.5 32.7 85.2 72.8 248.2
31/08 04:20 10 66 6.2 4 7 7 1021 0 14.6 23.4 32.4 84.5 71.9 245.2
31/08 04:10 10.2 66 6.28 4.1 7 7 1021 0 14.8 23.5 32.6 85.1 72.8 248.1
31/08 04:00 10.5 66 6.4 4.4 6 7 1021 0 15.0 23.6 33.0 86.0 74.0 252.6
31/08 03:50 10.8 64 6.33 4.3 6 7 1021 0 14.9 23.4 32.6 85.0 72.9 248.5
31/08 03:40 10.9 66 6.57 4.8 7 7 1021 0 15.4 23.8 33.4 87.3 75.8 258.9
31/08 03:30 10.5 65 6.31 4.2 7 7 1021 0 14.8 23.5 32.6 85.1 72.9 248.5
31/08 03:20 10.8 65 6.43 4.5 7 7 1021 0 15.1 23.6 32.9 86.0 74.1 252.9
31/08 03:10 11.1 63 6.35 4.3 6 6 1021 0 14.9 23.4 32.5 84.9 72.8 248.4
31/08 03:00 11.5 61 6.3 4.3 6 7 1021.1 0 14.8 23.2 32.2 83.9 71.8 245.0
31/08 02:50 12.1 58 6.22 4.1 6 7 1021.1 0 14.6 22.9 31.6 82.5 70.3 239.7
31/08 02:40 12.7 56 6.23 4.2 2 4 1021.1 0 14.6 22.8 31.4 82.0 69.9 238.4
31/08 02:30 13.4 54 6.28 4.3 7 9 1020.9 0 14.7 22.7 31.3 81.7 69.9 238.4
31/08 02:20 14.1 52 6.31 4.4 7 9 1021 0 14.7 22.5 31.2 81.3 69.6 237.6
31/08 02:10 14.5 50 6.22 4.2 9 11 1021 0 14.5 22.3 30.7 80.1 68.2 232.6
31/08 02:00 14.7 50 6.3 4.4 9 11 1021.1 0 14.7 22.4 30.9 80.7 69.0 235.5
31/08 01:50 14.5 51 6.34 4.5 9 13 1021.1 0 14.7 22.5 31.2 81.2 69.7 237.7
31/08 01:40 13.7 53 6.28 4.3 9 13 1021.1 0 14.7 22.6 31.2 81.5 69.6 237.5
31/08 01:30 13.6 57 6.71 5.3 9 11 1021.2 0 15.6 23.3 32.9 85.9 75.0 256.4
31/08 01:20 13.9 55 6.59 5 11 11 1021.2 0 15.3 23.0 32.3 84.3 73.2 250.3
31/08 01:10 13.1 54 6.16 4 7 11 1021.3 0 14.4 22.6 31.0 80.9 68.7 234.2
31/08 01:00 13 56 6.35 4.4 7 9 1021.3 0 14.8 22.9 31.8 82.9 71.1 242.7
31/08 00:50 13 56 6.35 4.4 7 9 1021.3 0 14.8 22.9 31.8 82.9 71.1 242.7
31/08 00:40 13.7 52 6.16 4 7 9 1021.3 0 14.4 22.4 30.8 80.3 68.2 232.5
31/08 00:08 15.4 47 6.17 4.2 6 7 1021.2 0 14.4 22.0 30.2 78.7 66.9 228.0
31/08 00:00 15.9 46 6.23 4.3 9 11 1021.2 0 14.5 22.0 30.2 78.8 67.2 229.1
30/08 23:50 17.2 45 6.59 5.2 11 13 1021.3 0 15.2 22.2 31.0 81.0 70.3 240.3
30/08 23:17 15.9 46 6.23 4.3 7 9 1021.4 0 14.5 22.0 30.2 78.8 67.2 229.2
30/08 23:10 15.9 45 6.09 4 7 9 1021.4 0 14.2 21.8 29.7 77.5 65.5 223.4
30/08 23:00 15.8 47 6.33 4.5 9 9 1021.3 0 14.7 22.2 30.6 79.9 68.4 233.6
30/08 22:50 16.4 44 6.14 4.1 7 9 1021.4 0 14.3 21.8 29.7 77.5 65.7 224.0
30/08 22:40 16.4 43 6 3.8 7 7 1021.3 0 14.0 21.6 29.2 76.2 64.1 218.3
30/08 22:30 17.6 39 5.85 3.5 7 9 1021.3 0 13.6 21.1 28.3 73.7 61.4 209.1
30/08 22:20 18.2 40 6.22 4.4 9 11 1021.3 0 14.4 21.4 29.4 76.5 65.1 222.4
30/08 22:10 18.2 42 6.53 5.1 9 11 1021.2 0 15.0 21.9 30.4 79.4 68.7 234.9
30/08 22:00 18.3 41 6.41 4.8 9 11 1021.2 0 14.8 21.7 30.0 78.2 67.2 229.7
30/08 21:50 18.7 41 6.56 5.2 9 11 1021.2 0 15.1 21.8 30.4 79.2 68.6 234.6
30/08 21:40 19 39 6.35 4.7 9 11 1021.1 0 14.6 21.4 29.5 77.0 66.0 225.3
30/08 21:30 19.7 38 6.45 5 9 11 1021 0 14.8 21.4 29.6 77.2 66.5 227.4
30/08 21:20 19.8 37 6.32 4.7 9 11 1020.8 0 14.5 21.2 29.1 75.9 65.0 221.9
30/08 21:10 20.3 40 7.03 6.3 11 13 1020.6 0 16.0 22.1 31.4 81.9 72.6 248.8
30/08 21:00 20.7 35 6.3 4.7 11 13 1020.5 0 14.4 21.0 28.7 74.9 64.0 218.7
30/08 20:50 21.3 32 5.96 4 11 13 1020.3 0 13.7 20.4 27.4 71.3 59.8 204.0
30/08 20:40 21.6 31 5.88 3.8 11 13 1020.3 0 13.5 20.2 27.0 70.4 58.7 200.2
30/08 20:30 22.1 30 5.86 3.7 11 13 1020.1 0 13.5 20.1 26.8 69.7 58.1 198.2
30/08 20:20 22.3 30 5.92 3.9 13 15 1019.9 0 13.6 20.1 26.9 70.1 58.6 199.9
30/08 20:10 22.3 30 5.92 3.9 11 13 1019.8 0 13.6 20.1 26.9 70.1 58.6 199.9
30/08 20:00 22.6 29 5.83 3.7 11 13 1019.6 0 13.4 19.9 26.5 69.0 57.4 195.8
30/08 19:50 23 28 5.75 3.5 11 13 1019.4 0 13.2 19.7 26.1 68.0 56.3 191.9
30/08 19:40 23.4 27 5.68 3.4 13 15 1019.3 0 13.1 19.5 25.8 67.1 55.3 188.4

Last Refresh: 31-Aug-2026 13:04:22

Bureau of Meteorology